sensor_id;sensor_type;location;lat;lon;timestamp;temperature;humidity
36508;DHT22;22521;47.364;8.554;2023-01-29T00:02:48;1.10;86.10
36508;DHT22;22521;47.364;8.554;2023-01-29T00:06:51;1.10;86.00
36508;DHT22;22521;47.364;8.554;2023-01-29T00:11:00;1.20;85.80
36508;DHT22;22521;47.364;8.554;2023-01-29T00:15:02;1.20;85.60
36508;DHT22;22521;47.364;8.554;2023-01-29T00:19:05;1.10;85.40
36508;DHT22;22521;47.364;8.554;2023-01-29T00:23:11;1.10;85.10
36508;DHT22;22521;47.364;8.554;2023-01-29T00:27:16;1.20;84.60
36508;DHT22;22521;47.364;8.554;2023-01-29T00:31:23;1.00;84.60
36508;DHT22;22521;47.364;8.554;2023-01-29T00:35:25;1.00;85.10
36508;DHT22;22521;47.364;8.554;2023-01-29T00:39:28;1.00;85.60
36508;DHT22;22521;47.364;8.554;2023-01-29T00:43:49;1.10;86.00
36508;DHT22;22521;47.364;8.554;2023-01-29T00:48:10;1.20;85.80
36508;DHT22;22521;47.364;8.554;2023-01-29T00:52:15;1.20;85.80
36508;DHT22;22521;47.364;8.554;2023-01-29T00:56:28;1.20;85.80
36508;DHT22;22521;47.364;8.554;2023-01-29T01:00:30;1.30;85.70
36508;DHT22;22521;47.364;8.554;2023-01-29T01:04:37;1.40;85.10
36508;DHT22;22521;47.364;8.554;2023-01-29T01:08:40;1.50;85.10
36508;DHT22;22521;47.364;8.554;2023-01-29T01:13:05;1.50;84.50
36508;DHT22;22521;47.364;8.554;2023-01-29T01:17:08;1.50;84.40
36508;DHT22;22521;47.364;8.554;2023-01-29T01:21:13;1.60;84.60
36508;DHT22;22521;47.364;8.554;2023-01-29T01:25:20;1.70;84.30
36508;DHT22;22521;47.364;8.554;2023-01-29T01:29:24;1.80;83.70
36508;DHT22;22521;47.364;8.554;2023-01-29T01:33:29;1.90;82.70
36508;DHT22;22521;47.364;8.554;2023-01-29T01:37:31;1.80;83.00
36508;DHT22;22521;47.364;8.554;2023-01-29T01:41:37;1.90;83.10
36508;DHT22;22521;47.364;8.554;2023-01-29T01:45:39;1.80;83.00
36508;DHT22;22521;47.364;8.554;2023-01-29T01:49:43;1.90;82.80
36508;DHT22;22521;47.364;8.554;2023-01-29T01:54:10;1.80;83.10
36508;DHT22;22521;47.364;8.554;2023-01-29T01:58:39;1.80;83.10
36508;DHT22;22521;47.364;8.554;2023-01-29T02:02:46;1.80;83.50
36508;DHT22;22521;47.364;8.554;2023-01-29T02:07:10;1.90;82.80
36508;DHT22;22521;47.364;8.554;2023-01-29T02:11:32;1.90;83.10
36508;DHT22;22521;47.364;8.554;2023-01-29T02:15:35;1.80;83.30
36508;DHT22;22521;47.364;8.554;2023-01-29T02:19:44;1.80;83.20
36508;DHT22;22521;47.364;8.554;2023-01-29T02:29:11;1.80;82.80
36508;DHT22;22521;47.364;8.554;2023-01-29T02:52:24;2.00;80.80
36508;DHT22;22521;47.364;8.554;2023-01-29T03:00:32;2.10;79.60
36508;DHT22;22521;47.364;8.554;2023-01-29T03:04:44;2.10;79.30
36508;DHT22;22521;47.364;8.554;2023-01-29T03:13:13;2.00;79.60
36508;DHT22;22521;47.364;8.554;2023-01-29T03:17:23;2.00;79.30
36508;DHT22;22521;47.364;8.554;2023-01-29T03:21:33;2.00;80.20
36508;DHT22;22521;47.364;8.554;2023-01-29T03:26:03;2.00;79.40
36508;DHT22;22521;47.364;8.554;2023-01-29T03:30:27;2.00;79.20
36508;DHT22;22521;47.364;8.554;2023-01-29T03:35:04;2.00;79.10
36508;DHT22;22521;47.364;8.554;2023-01-29T03:39:09;2.00;79.30
36508;DHT22;22521;47.364;8.554;2023-01-29T03:43:15;2.00;78.90
36508;DHT22;22521;47.364;8.554;2023-01-29T03:47:29;2.00;78.60
36508;DHT22;22521;47.364;8.554;2023-01-29T03:56:03;2.00;78.20
36508;DHT22;22521;47.364;8.554;2023-01-29T04:00:15;2.10;77.80
36508;DHT22;22521;47.364;8.554;2023-01-29T04:04:37;2.00;77.60
36508;DHT22;22521;47.364;8.554;2023-01-29T04:09:18;2.00;77.70
36508;DHT22;22521;47.364;8.554;2023-01-29T04:13:26;2.00;77.80
36508;DHT22;22521;47.364;8.554;2023-01-29T04:17:42;2.00;77.60
36508;DHT22;22521;47.364;8.554;2023-01-29T04:22:08;1.90;77.90
36508;DHT22;22521;47.364;8.554;2023-01-29T04:30:50;2.00;78.20
36508;DHT22;22521;47.364;8.554;2023-01-29T04:48:27;2.00;78.50
36508;DHT22;22521;47.364;8.554;2023-01-29T04:52:43;2.00;78.50
36508;DHT22;22521;47.364;8.554;2023-01-29T05:00:57;1.90;78.60
36508;DHT22;22521;47.364;8.554;2023-01-29T05:05:00;2.00;78.50
36508;DHT22;22521;47.364;8.554;2023-01-29T05:09:06;2.00;78.40
36508;DHT22;22521;47.364;8.554;2023-01-29T05:13:12;1.90;78.30
36508;DHT22;22521;47.364;8.554;2023-01-29T05:17:18;1.90;78.70
36508;DHT22;22521;47.364;8.554;2023-01-29T05:21:21;1.90;78.70
36508;DHT22;22521;47.364;8.554;2023-01-29T05:25:27;1.90;78.90
36508;DHT22;22521;47.364;8.554;2023-01-29T05:29:30;1.90;78.60
36508;DHT22;22521;47.364;8.554;2023-01-29T05:33:34;1.90;78.10
36508;DHT22;22521;47.364;8.554;2023-01-29T05:37:37;1.90;77.60
36508;DHT22;22521;47.364;8.554;2023-01-29T05:41:41;1.90;77.40
36508;DHT22;22521;47.364;8.554;2023-01-29T05:45:54;2.00;76.90
36508;DHT22;22521;47.364;8.554;2023-01-29T05:49:57;2.00;76.30
36508;DHT22;22521;47.364;8.554;2023-01-29T05:53:59;2.00;75.30
36508;DHT22;22521;47.364;8.554;2023-01-29T05:58:02;2.00;74.60
36508;DHT22;22521;47.364;8.554;2023-01-29T06:02:09;2.00;75.30
36508;DHT22;22521;47.364;8.554;2023-01-29T06:06:12;2.00;75.60
36508;DHT22;22521;47.364;8.554;2023-01-29T06:10:18;2.00;75.80
36508;DHT22;22521;47.364;8.554;2023-01-29T06:14:25;1.90;76.10
36508;DHT22;22521;47.364;8.554;2023-01-29T06:18:30;2.10;75.10
36508;DHT22;22521;47.364;8.554;2023-01-29T06:22:33;2.10;75.00
36508;DHT22;22521;47.364;8.554;2023-01-29T06:26:37;2.10;74.70
36508;DHT22;22521;47.364;8.554;2023-01-29T06:30:42;2.00;74.80
36508;DHT22;22521;47.364;8.554;2023-01-29T06:35:41;2.00;75.00
36508;DHT22;22521;47.364;8.554;2023-01-29T06:39:44;2.00;75.60
36508;DHT22;22521;47.364;8.554;2023-01-29T06:43:46;1.90;75.60
36508;DHT22;22521;47.364;8.554;2023-01-29T06:47:49;1.90;75.60
36508;DHT22;22521;47.364;8.554;2023-01-29T06:51:51;1.90;75.80
36508;DHT22;22521;47.364;8.554;2023-01-29T06:56:08;2.00;76.00
36508;DHT22;22521;47.364;8.554;2023-01-29T07:00:16;2.00;76.10
36508;DHT22;22521;47.364;8.554;2023-01-29T07:05:23;1.90;76.20
36508;DHT22;22521;47.364;8.554;2023-01-29T07:09:41;1.90;76.20
36508;DHT22;22521;47.364;8.554;2023-01-29T07:13:43;1.90;76.50
36508;DHT22;22521;47.364;8.554;2023-01-29T11:50:33;22.50;66.90
36508;DHT22;22521;47.364;8.554;2023-01-29T11:54:52;22.40;67.50
36508;DHT22;22521;47.364;8.554;2023-01-29T11:58:57;22.50;67.20
36508;DHT22;22521;47.364;8.554;2023-01-29T12:03:13;22.70;66.90
36508;DHT22;22521;47.364;8.554;2023-01-29T12:07:19;22.90;66.70
36508;DHT22;22521;47.364;8.554;2023-01-29T12:15:33;23.10;66.10
36508;DHT22;22521;47.364;8.554;2023-01-29T12:23:59;23.30;65.70
36508;DHT22;22521;47.364;8.554;2023-01-29T12:37:04;23.40;65.30
36508;DHT22;22521;47.364;8.554;2023-01-29T12:45:27;23.40;65.00
36508;DHT22;22521;47.364;8.554;2023-01-29T12:49:33;23.40;64.80
36508;DHT22;22521;47.364;8.554;2023-01-29T12:58:08;23.50;65.10
36508;DHT22;22521;47.364;8.554;2023-01-29T13:06:52;23.50;65.00
36508;DHT22;22521;47.364;8.554;2023-01-29T13:11:01;23.50;65.00
36508;DHT22;22521;47.364;8.554;2023-01-29T13:15:16;23.50;64.90
36508;DHT22;22521;47.364;8.554;2023-01-29T13:19:32;23.60;65.00
36508;DHT22;22521;47.364;8.554;2023-01-29T13:23:43;23.60;65.00
36508;DHT22;22521;47.364;8.554;2023-01-29T13:27:48;23.60;65.00
36508;DHT22;22521;47.364;8.554;2023-01-29T13:31:55;23.60;64.90
36508;DHT22;22521;47.364;8.554;2023-01-29T13:35:59;23.60;65.00
36508;DHT22;22521;47.364;8.554;2023-01-29T13:40:05;23.60;65.00
36508;DHT22;22521;47.364;8.554;2023-01-29T13:44:37;23.60;65.00
36508;DHT22;22521;47.364;8.554;2023-01-29T13:48:48;23.60;65.00
36508;DHT22;22521;47.364;8.554;2023-01-29T13:52:59;23.70;65.10
36508;DHT22;22521;47.364;8.554;2023-01-29T13:57:08;23.70;65.30
